Terminal Aerodrome Forecast
Issued by NWS Huntsville, AL

Current Version | Previous Version | Text Only | Print | Product List | Glossary On
Versions: 1 2 3 4 5 6 7 8 9 10 11 12
000
FTUS44 KHUN 251122
TAFMSL
TAF
KMSL 251122Z 2512/2612 02002KT P6SM FEW250
      TEMPO 2512/2513 5SM BR
     FM251700 35005KT P6SM SCT070
     FM260000 VRB03KT P6SM SKC=

USA.gov is the U.S. government's official web portal to all federal, state and local government web resources and services.